Time;durP1;ratioP1;P1;durP2;ratioP2;P2;SDS_P1;SDS_P2;PMS_P1;PMS_P2;Temp;Humidity;BMP_temperature;BMP_pressure;BME280_temperature;BME280_humidity;BME280_pressure;Samples;Min_cycle;Max_cycle;Signal;HPM_P1;HPM_P2
2023/09/10 00:29:53;;;;;;;5.88;2.30;;;;;;;;;;5002366;28;20872;-66
2023/09/10 00:32:19;;;;;;;7.72;2.40;;;;;;;;;;4989919;28;20042;-66
2023/09/10 00:34:46;;;;;;;6.30;2.58;;;;;;;;;;4989510;28;20053;-67
2023/09/10 00:37:13;;;;;;;4.72;1.77;;;;;;;;;;4989243;28;20511;-65
2023/09/10 00:39:39;;;;;;;5.55;2.33;;;;;;;;;;4990279;28;20819;-66
2023/09/10 00:42:09;;;;;;;6.07;2.65;;;;;;;;;;4989396;28;20109;-69
2023/09/10 00:44:37;;;;;;;5.25;2.30;;;;;;;;;;4989117;28;20815;-66
2023/09/10 00:47:06;;;;;;;5.00;2.22;;;;;;;;;;4988587;28;20117;-64
2023/09/10 00:49:33;;;;;;;6.20;2.70;;;;;;;;;;4988890;28;20719;-65
2023/09/10 00:52:01;;;;;;;5.22;2.53;;;;;;;;;;4989974;28;20038;-63
2023/09/10 00:54:32;;;;;;;5.38;2.38;;;;;;;;;;4988432;28;20849;-63
2023/09/10 01:22:43;;;;;;;6.50;2.55;;;;;;;;;;5058460;27;20437;-67
2023/09/10 01:25:10;;;;;;;7.40;2.70;;;;;;;;;;5045373;28;20044;-66
2023/09/10 01:27:37;;;;;;;5.55;2.22;;;;;;;;;;5046461;28;20119;-65
2023/09/10 01:30:04;;;;;;;6.18;2.78;;;;;;;;;;5047784;28;20044;-63
2023/09/10 01:32:33;;;;;;;7.55;3.20;;;;;;;;;;5046511;28;20041;-61
2023/09/10 01:35:04;;;;;;;6.43;2.83;;;;;;;;;;5046438;28;20048;-65
2023/09/10 01:37:36;;;;;;;5.85;2.90;;;;;;;;;;5061723;28;20363;-65
2023/09/10 01:40:06;;;;;;;7.50;2.80;;;;;;;;;;5046876;28;20041;-66
2023/09/10 01:42:34;;;;;;;7.75;2.67;;;;;;;;;;5046456;28;20485;-67
2023/09/10 01:45:01;;;;;;;5.22;2.90;;;;;;;;;;5048517;28;20045;-65
2023/09/10 03:11:51;;;;;;;6.97;3.25;;;;;;;;;;5034633;28;20432;-66
2023/09/10 03:14:17;;;;;;;6.70;3.28;;;;;;;;;;5026885;28;20112;-66
2023/09/10 03:16:44;;;;;;;9.32;3.42;;;;;;;;;;5026735;28;20045;-66
2023/09/10 03:19:11;;;;;;;18.13;4.88;;;;;;;;;;5027270;28;20053;-65
2023/09/10 03:21:38;;;;;;;13.45;4.90;;;;;;;;;;5025669;28;20080;-65
2023/09/10 03:24:05;;;;;;;8.70;3.45;;;;;;;;;;5027282;28;20092;-67
2023/09/10 03:26:31;;;;;;;8.77;3.33;;;;;;;;;;5026078;28;20061;-65
2023/09/10 03:28:58;;;;;;;8.60;3.40;;;;;;;;;;5028399;28;20483;-65
2023/09/10 03:31:25;;;;;;;8.05;3.30;;;;;;;;;;5028417;28;20041;-65
2023/09/10 03:33:51;;;;;;;9.23;3.15;;;;;;;;;;5028440;28;20613;-65
2023/09/10 03:36:18;;;;;;;16.23;3.15;;;;;;;;;;5028052;28;20900;-65
2023/09/10 03:38:45;;;;;;;9.10;3.50;;;;;;;;;;5027833;28;20185;-64
2023/09/10 03:41:12;;;;;;;10.88;3.40;;;;;;;;;;5029060;28;20036;-66
2023/09/10 03:43:40;;;;;;;8.82;3.25;;;;;;;;;;5027874;28;20037;-65
2023/09/10 03:46:06;;;;;;;7.80;3.28;;;;;;;;;;5027221;28;20041;-67
2023/09/10 03:48:33;;;;;;;7.57;3.10;;;;;;;;;;5027751;28;20064;-65
2023/09/10 03:51:00;;;;;;;10.60;4.10;;;;;;;;;;5029796;28;20107;-65
2023/09/10 03:53:26;;;;;;;9.60;3.45;;;;;;;;;;5027682;28;20059;-65
2023/09/10 03:55:53;;;;;;;10.60;3.67;;;;;;;;;;5026822;28;20248;-65
2023/09/10 03:58:19;;;;;;;13.15;3.90;;;;;;;;;;5027614;28;20041;-65
2023/09/10 04:00:46;;;;;;;9.00;3.55;;;;;;;;;;5026933;28;20708;-65
2023/09/10 04:03:13;;;;;;;18.05;4.30;;;;;;;;;;5025725;28;20142;-64
2023/09/10 04:05:40;;;;;;;9.95;4.40;;;;;;;;;;5025886;28;20061;-65
2023/09/10 04:08:06;;;;;;;13.57;5.00;;;;;;;;;;5027318;28;20069;-66
2023/09/10 04:10:33;;;;;;;9.35;4.50;;;;;;;;;;5033522;28;20053;-65
2023/09/10 04:13:00;;;;;;;15.02;5.03;;;;;;;;;;5034531;28;20041;-64
2023/09/10 04:15:26;;;;;;;13.02;5.00;;;;;;;;;;5024021;28;20053;-66
2023/09/10 04:17:53;;;;;;;12.88;5.30;;;;;;;;;;5026617;28;20041;-65
2023/09/10 04:20:21;;;;;;;17.17;5.00;;;;;;;;;;5026294;28;20037;-65
2023/09/10 04:22:48;;;;;;;11.02;4.72;;;;;;;;;;5013870;28;20057;-65
2023/09/10 04:25:14;;;;;;;13.63;4.72;;;;;;;;;;5011510;28;20976;-65
2023/09/10 04:27:41;;;;;;;12.93;4.47;;;;;;;;;;5012193;28;20037;-66
2023/09/10 04:30:08;;;;;;;10.90;4.25;;;;;;;;;;5010684;28;20091;-66
2023/09/10 04:32:34;;;;;;;9.82;4.30;;;;;;;;;;5021624;28;20033;-66
2023/09/10 04:35:01;;;;;;;16.63;4.10;;;;;;;;;;5011041;28;20107;-65
2023/09/10 04:37:28;;;;;;;12.70;4.60;;;;;;;;;;5012570;28;20155;-66
2023/09/10 04:39:54;;;;;;;11.00;4.65;;;;;;;;;;5010657;28;21591;-65
2023/09/10 04:42:21;;;;;;;11.55;4.72;;;;;;;;;;5012686;28;20045;-65
2023/09/10 04:44:49;;;;;;;9.30;4.90;;;;;;;;;;5010283;28;20053;-65
2023/09/10 04:47:15;;;;;;;10.95;4.50;;;;;;;;;;5011700;28;20554;-66
2023/09/10 04:49:42;;;;;;;17.85;4.85;;;;;;;;;;5012077;28;21646;-65
2023/09/10 04:52:09;;;;;;;12.20;4.47;;;;;;;;;;5013258;28;20494;-64
2023/09/10 04:54:35;;;;;;;11.50;4.32;;;;;;;;;;5011459;28;20552;-66
2023/09/10 04:57:02;;;;;;;14.32;4.40;;;;;;;;;;5013062;28;20092;-66
2023/09/10 04:59:29;;;;;;;14.32;4.80;;;;;;;;;;5026612;28;20041;-66
2023/09/10 05:01:57;;;;;;;10.38;5.15;;;;;;;;;;5012937;28;20148;-66
2023/09/10 05:04:24;;;;;;;9.57;4.80;;;;;;;;;;5025901;28;20041;-66
2023/09/10 05:06:50;;;;;;;13.80;5.18;;;;;;;;;;5021269;28;20036;-65
2023/09/10 05:09:17;;;;;;;10.05;4.57;;;;;;;;;;5026468;28;20079;-68
2023/09/10 05:11:44;;;;;;;11.45;4.10;;;;;;;;;;5012345;28;20164;-66
2023/09/10 05:14:10;;;;;;;11.15;4.15;;;;;;;;;;5009637;28;20136;-66
2023/09/10 05:16:37;;;;;;;12.75;4.88;;;;;;;;;;5011331;28;20863;-66
2023/09/10 05:19:04;;;;;;;7.72;3.65;;;;;;;;;;5012725;28;20038;-66
2023/09/10 05:21:30;;;;;;;11.07;4.35;;;;;;;;;;5012239;28;20050;-66
2023/09/10 05:23:57;;;;;;;9.43;4.07;;;;;;;;;;5011697;28;20524;-66
2023/09/10 05:26:23;;;;;;;8.88;4.40;;;;;;;;;;5013473;28;20575;-67
2023/09/10 05:28:51;;;;;;;9.55;4.45;;;;;;;;;;5013987;28;20432;-66
2023/09/10 05:31:18;;;;;;;10.48;4.30;;;;;;;;;;5013915;28;20179;-66
2023/09/10 05:33:44;;;;;;;11.77;6.22;;;;;;;;;;5011458;28;20049;-65
2023/09/10 05:36:11;;;;;;;12.45;5.15;;;;;;;;;;5014519;28;20041;-66
2023/09/10 05:38:38;;;;;;;10.93;5.00;;;;;;;;;;5013974;28;20041;-66
2023/09/10 05:41:05;;;;;;;10.55;5.50;;;;;;;;;;5012979;28;20079;-66
2023/09/10 05:43:32;;;;;;;11.15;5.10;;;;;;;;;;5012174;28;20085;-65
2023/09/10 05:45:59;;;;;;;10.70;5.07;;;;;;;;;;5013037;28;20045;-65
2023/09/10 05:48:25;;;;;;;11.18;4.63;;;;;;;;;;5011854;28;20037;-66
2023/09/10 05:50:58;;;;;;;12.65;5.10;;;;;;;;;;5012585;28;20049;-65
2023/09/10 05:53:25;;;;;;;13.25;4.95;;;;;;;;;;5012938;28;20127;-64
2023/09/10 05:55:51;;;;;;;10.60;4.43;;;;;;;;;;5009983;28;20041;-66
2023/09/10 05:58:19;;;;;;;11.70;5.00;;;;;;;;;;5012529;28;20037;-65
2023/09/10 06:00:45;;;;;;;10.52;4.68;;;;;;;;;;5011982;28;20045;-66
2023/09/10 06:03:12;;;;;;;12.57;4.57;;;;;;;;;;5013607;28;20509;-66
2023/09/10 06:05:38;;;;;;;12.05;4.65;;;;;;;;;;5012558;28;20041;-65
2023/09/10 06:08:05;;;;;;;11.38;4.90;;;;;;;;;;5013166;28;20041;-66
2023/09/10 06:10:32;;;;;;;14.18;5.00;;;;;;;;;;5011758;28;20144;-65
2023/09/10 06:12:59;;;;;;;11.98;4.70;;;;;;;;;;5013135;28;20037;-65
2023/09/10 06:15:27;;;;;;;14.73;5.10;;;;;;;;;;5012600;28;20219;-64
2023/09/10 06:17:54;;;;;;;13.75;5.55;;;;;;;;;;5014902;28;21458;-64
2023/09/10 06:20:20;;;;;;;10.80;5.32;;;;;;;;;;5015190;28;20038;-65
2023/09/10 06:22:47;;;;;;;11.27;4.80;;;;;;;;;;5009361;28;20044;-65
2023/09/10 06:25:14;;;;;;;11.00;4.85;;;;;;;;;;5010651;28;20056;-64
2023/09/10 06:27:40;;;;;;;11.98;5.00;;;;;;;;;;5011925;28;20041;-63
2023/09/10 06:30:07;;;;;;;9.68;4.80;;;;;;;;;;5011765;28;20045;-64
2023/09/10 06:32:34;;;;;;;13.85;5.40;;;;;;;;;;5011618;28;20747;-64
2023/09/10 06:35:00;;;;;;;14.00;5.03;;;;;;;;;;5010905;28;20414;-64
2023/09/10 06:37:27;;;;;;;12.82;5.07;;;;;;;;;;5011364;28;20053;-64
2023/09/10 06:39:54;;;;;;;14.45;5.40;;;;;;;;;;5011924;28;20041;-64
2023/09/10 06:42:21;;;;;;;11.35;5.43;;;;;;;;;;5012396;28;20121;-64
2023/09/10 06:44:47;;;;;;;11.00;5.50;;;;;;;;;;5011612;28;20092;-64
2023/09/10 06:47:14;;;;;;;13.57;5.03;;;;;;;;;;5008672;28;20045;-65
2023/09/10 06:49:40;;;;;;;10.80;5.20;;;;;;;;;;5008772;28;22124;-65
2023/09/10 06:52:08;;;;;;;13.00;5.75;;;;;;;;;;5009324;28;20342;-65
2023/09/10 06:54:35;;;;;;;10.73;5.65;;;;;;;;;;5007690;28;20679;-64
2023/09/10 06:57:01;;;;;;;10.93;6.25;;;;;;;;;;5014156;28;20721;-65
2023/09/10 06:59:28;;;;;;;13.13;5.70;;;;;;;;;;5012488;28;20426;-64
2023/09/10 07:01:55;;;;;;;10.50;5.53;;;;;;;;;;5028486;28;20416;-66
2023/09/10 07:04:23;;;;;;;8.52;4.93;;;;;;;;;;5012069;28;20071;-65
2023/09/10 07:06:50;;;;;;;10.25;5.25;;;;;;;;;;5031905;28;20402;-64
2023/09/10 07:09:18;;;;;;;11.23;4.90;;;;;;;;;;5014193;28;20060;-66
2023/09/10 07:11:44;;;;;;;14.93;5.63;;;;;;;;;;5033396;28;20045;-63
2023/09/10 07:14:11;;;;;;;11.95;5.20;;;;;;;;;;5031641;28;20433;-66
2023/09/10 07:16:37;;;;;;;11.20;4.90;;;;;;;;;;5030759;28;20049;-65
2023/09/10 07:19:04;;;;;;;14.95;5.18;;;;;;;;;;5031472;28;20040;-65
2023/09/10 07:21:31;;;;;;;12.77;5.25;;;;;;;;;;5030840;28;20480;-65
2023/09/10 07:23:58;;;;;;;13.98;5.25;;;;;;;;;;5029859;28;20754;-65
2023/09/10 07:26:24;;;;;;;10.32;5.28;;;;;;;;;;5030145;28;20128;-65
2023/09/10 07:28:51;;;;;;;10.20;5.80;;;;;;;;;;5030040;28;20098;-64
2023/09/10 07:31:18;;;;;;;11.27;5.32;;;;;;;;;;5031932;28;20049;-63
2023/09/10 07:33:44;;;;;;;11.82;5.25;;;;;;;;;;5031016;28;20132;-64
2023/09/10 07:36:11;;;;;;;11.85;4.95;;;;;;;;;;5030974;28;20580;-65
2023/09/10 07:38:38;;;;;;;11.88;5.95;;;;;;;;;;5031347;28;20037;-64
2023/09/10 07:41:04;;;;;;;10.40;5.80;;;;;;;;;;5031506;28;20337;-64
2023/09/10 07:43:31;;;;;;;12.75;6.43;;;;;;;;;;5029366;28;20437;-65
2023/09/10 07:45:58;;;;;;;13.10;6.13;;;;;;;;;;5031449;28;20087;-66
2023/09/10 07:48:24;;;;;;;15.80;5.95;;;;;;;;;;5030374;28;20048;-65
2023/09/10 07:50:55;;;;;;;13.43;6.57;;;;;;;;;;5029587;28;20073;-63
2023/09/10 07:53:21;;;;;;;15.77;6.47;;;;;;;;;;5031141;28;20409;-63
2023/09/10 07:55:49;;;;;;;12.90;6.30;;;;;;;;;;5030031;28;20041;-64
2023/09/10 07:58:15;;;;;;;12.23;5.93;;;;;;;;;;5033382;28;20033;-66
2023/09/10 08:00:42;;;;;;;12.00;6.28;;;;;;;;;;5033150;28;20037;-64
2023/09/10 08:03:09;;;;;;;13.43;5.97;;;;;;;;;;5033894;28;20041;-63
2023/09/10 08:05:35;;;;;;;12.10;6.38;;;;;;;;;;5032665;28;20033;-66
2023/09/10 08:08:05;;;;;;;12.57;6.32;;;;;;;;;;5015735;28;20373;-70
2023/09/10 08:10:33;;;;;;;14.00;5.95;;;;;;;;;;5031574;28;20041;-64
2023/09/10 08:13:00;;;;;;;15.60;5.93;;;;;;;;;;5012753;28;20036;-65
2023/09/10 08:15:27;;;;;;;14.07;6.45;;;;;;;;;;5032371;28;20037;-64
2023/09/10 08:17:57;;;;;;;14.52;6.07;;;;;;;;;;5033504;28;20456;-65
2023/09/10 08:20:24;;;;;;;14.95;6.28;;;;;;;;;;5031229;28;20403;-64
2023/09/10 08:22:50;;;;;;;15.73;6.13;;;;;;;;;;5033290;28;20029;-65
2023/09/10 08:25:17;;;;;;;14.15;6.32;;;;;;;;;;5033568;28;20045;-64
2023/09/10 08:27:43;;;;;;;10.90;6.28;;;;;;;;;;5032590;28;20040;-63
2023/09/10 08:30:10;;;;;;;15.60;6.05;;;;;;;;;;5032554;28;20219;-65
2023/09/10 08:32:37;;;;;;;12.60;6.47;;;;;;;;;;5031369;28;20493;-64
2023/09/10 08:35:04;;;;;;;9.82;5.00;;;;;;;;;;5029371;28;20041;-64
2023/09/10 08:37:31;;;;;;;10.38;5.47;;;;;;;;;;5032078;28;20597;-64
2023/09/10 08:39:58;;;;;;;13.32;6.80;;;;;;;;;;5031382;28;20124;-65
2023/09/10 08:42:39;;;;;;;13.43;6.10;;;;;;;;;;5030502;28;20090;-64
2023/09/10 08:45:10;;;;;;;10.43;5.13;;;;;;;;;;5030731;28;20136;-64
2023/09/10 08:47:42;;;;;;;14.93;5.68;;;;;;;;;;5032272;28;20036;-65
2023/09/10 08:50:12;;;;;;;12.30;5.75;;;;;;;;;;5032101;28;20477;-65
2023/09/10 08:52:40;;;;;;;15.13;6.15;;;;;;;;;;5031899;28;20059;-63
2023/09/10 08:55:11;;;;;;;13.68;5.53;;;;;;;;;;5032745;28;20462;-63
2023/09/10 08:57:39;;;;;;;11.60;5.55;;;;;;;;;;5032742;28;20102;-64
2023/09/10 09:00:12;;;;;;;11.55;5.90;;;;;;;;;;5033147;28;20040;-63
2023/09/10 09:02:40;;;;;;;11.50;5.93;;;;;;;;;;5033038;28;20126;-65
2023/09/10 09:05:07;;;;;;;9.40;5.10;;;;;;;;;;5032621;28;20124;-66
2023/09/10 09:07:50;;;;;;;10.98;5.55;;;;;;;;;;5031020;28;20347;-64
2023/09/10 09:10:22;;;;;;;14.97;5.60;;;;;;;;;;5031130;28;20084;-64
2023/09/10 09:12:50;;;;;;;12.18;6.00;;;;;;;;;;5032235;28;20324;-64
2023/09/10 09:15:17;;;;;;;13.05;6.47;;;;;;;;;;5032297;28;20044;-64
2023/09/10 09:17:44;;;;;;;14.27;6.15;;;;;;;;;;5031358;28;20124;-64
2023/09/10 09:20:12;;;;;;;10.65;6.10;;;;;;;;;;5031962;28;20441;-65
2023/09/10 09:22:43;;;;;;;10.85;5.93;;;;;;;;;;5032713;28;20533;-65
2023/09/10 09:25:09;;;;;;;15.10;5.70;;;;;;;;;;5032665;28;20041;-65
2023/09/10 09:27:37;;;;;;;11.60;5.60;;;;;;;;;;5032852;28;20388;-64
2023/09/10 09:30:06;;;;;;;13.23;5.88;;;;;;;;;;5025814;28;20044;-63
2023/09/10 09:32:35;;;;;;;10.25;5.40;;;;;;;;;;5033191;28;20041;-65
2023/09/10 09:35:03;;;;;;;13.15;5.85;;;;;;;;;;5032953;28;20037;-67
2023/09/10 09:37:33;;;;;;;10.70;5.15;;;;;;;;;;5034895;28;20048;-65
2023/09/10 09:40:07;;;;;;;9.60;5.13;;;;;;;;;;5034624;28;20063;-65
2023/09/10 09:42:34;;;;;;;12.27;5.68;;;;;;;;;;5034107;28;20041;-65
2023/09/10 09:45:01;;;;;;;10.77;5.40;;;;;;;;;;5035399;28;20037;-63
2023/09/10 09:47:28;;;;;;;12.10;5.82;;;;;;;;;;5042708;28;20059;-63
2023/09/10 09:49:56;;;;;;;12.60;6.03;;;;;;;;;;5045551;28;20045;-64
2023/09/10 09:52:23;;;;;;;10.90;5.43;;;;;;;;;;5006490;28;20067;-64
2023/09/10 09:54:50;;;;;;;12.25;6.20;;;;;;;;;;5030446;28;20037;-65
2023/09/10 09:57:17;;;;;;;14.20;5.75;;;;;;;;;;5031714;28;20051;-64
2023/09/10 09:59:44;;;;;;;11.05;5.30;;;;;;;;;;5030106;28;20033;-64
2023/09/10 10:02:18;;;;;;;13.20;5.38;;;;;;;;;;5030367;28;20048;-64
2023/09/10 10:04:45;;;;;;;10.13;5.20;;;;;;;;;;5026488;28;20042;-65
2023/09/10 10:07:15;;;;;;;9.88;5.30;;;;;;;;;;5011714;28;20037;-64
2023/09/10 10:09:42;;;;;;;10.98;5.35;;;;;;;;;;4998582;28;20505;-65
2023/09/10 10:12:09;;;;;;;11.63;6.03;;;;;;;;;;5010698;28;20083;-65
2023/09/10 10:14:37;;;;;;;12.07;5.57;;;;;;;;;;5010595;28;20128;-64
2023/09/10 10:17:04;;;;;;;11.13;5.47;;;;;;;;;;5010562;28;20072;-64
2023/09/10 10:19:32;;;;;;;11.35;5.43;;;;;;;;;;5009908;28;20164;-64
2023/09/10 10:21:59;;;;;;;10.57;5.20;;;;;;;;;;5011460;28;20049;-64
2023/09/10 10:24:26;;;;;;;11.95;5.65;;;;;;;;;;5010517;28;20562;-64
2023/09/10 10:26:53;;;;;;;8.55;4.90;;;;;;;;;;5011830;28;20152;-64
2023/09/10 10:29:21;;;;;;;12.35;5.45;;;;;;;;;;5009185;28;20073;-64
2023/09/10 10:31:52;;;;;;;11.52;6.13;;;;;;;;;;5030608;28;20083;-64
2023/09/10 10:34:22;;;;;;;10.25;5.43;;;;;;;;;;5032305;28;20239;-64
2023/09/10 10:36:52;;;;;;;12.57;5.78;;;;;;;;;;5030277;28;20048;-65
2023/09/10 10:39:22;;;;;;;14.00;5.65;;;;;;;;;;5032739;28;20045;-65
2023/09/10 10:41:51;;;;;;;9.45;5.35;;;;;;;;;;5030594;28;20716;-65
2023/09/10 10:44:25;;;;;;;11.52;5.97;;;;;;;;;;5032979;28;20050;-64
2023/09/10 10:46:54;;;;;;;10.75;5.53;;;;;;;;;;5031599;28;20044;-65
2023/09/10 10:49:21;;;;;;;13.38;5.28;;;;;;;;;;5030634;28;20048;-64
2023/09/10 10:51:50;;;;;;;13.45;5.28;;;;;;;;;;5031923;28;20041;-64
2023/09/10 10:54:17;;;;;;;13.90;6.07;;;;;;;;;;5032491;28;20497;-65
2023/09/10 10:56:43;;;;;;;9.15;5.47;;;;;;;;;;5031375;28;20060;-64
2023/09/10 10:59:10;;;;;;;12.02;5.97;;;;;;;;;;5031805;28;20045;-64
2023/09/10 11:01:37;;;;;;;13.65;6.03;;;;;;;;;;5030168;28;20041;-64
2023/09/10 11:04:18;;;;;;;12.18;5.57;;;;;;;;;;5030758;28;20048;-65
2023/09/10 11:07:04;;;;;;;10.68;5.30;;;;;;;;;;5030262;28;20126;-65
2023/09/10 11:09:35;;;;;;;13.82;5.85;;;;;;;;;;5013841;28;20068;-64
2023/09/10 11:12:07;;;;;;;11.75;5.88;;;;;;;;;;5030521;28;20076;-65
2023/09/10 11:14:52;;;;;;;10.65;5.57;;;;;;;;;;5012237;28;20036;-64
2023/09/10 11:17:22;;;;;;;12.02;5.65;;;;;;;;;;5031166;28;20453;-64
2023/09/10 11:19:49;;;;;;;13.85;6.00;;;;;;;;;;5028190;28;20216;-64
2023/09/10 11:22:15;;;;;;;18.08;6.07;;;;;;;;;;5029587;28;20056;-64
2023/09/10 11:24:42;;;;;;;14.57;6.30;;;;;;;;;;5029121;28;20555;-64
2023/09/10 11:27:19;;;;;;;10.85;6.57;;;;;;;;;;5030008;28;20040;-64
2023/09/10 11:30:04;;;;;;;19.50;5.93;;;;;;;;;;4986758;28;20554;-65
2023/09/10 11:32:31;;;;;;;12.82;6.35;;;;;;;;;;4989951;28;20041;-64
2023/09/10 11:35:16;;;;;;;14.48;7.00;;;;;;;;;;4991973;28;20046;-65
2023/09/10 11:37:45;;;;;;;14.25;6.88;;;;;;;;;;4990832;28;20125;-64
2023/09/10 11:40:13;;;;;;;14.80;7.15;;;;;;;;;;4990788;28;20053;-65
2023/09/10 11:42:43;;;;;;;18.20;8.15;;;;;;;;;;4990272;28;20056;-65
2023/09/10 11:45:10;;;;;;;15.13;7.07;;;;;;;;;;4990919;28;20046;-65
2023/09/10 11:47:40;;;;;;;12.20;7.18;;;;;;;;;;4988998;28;20042;-66
2023/09/10 11:50:09;;;;;;;15.27;8.05;;;;;;;;;;4990940;28;20072;-65
2023/09/10 11:52:35;;;;;;;16.48;7.97;;;;;;;;;;4990197;28;20092;-65
2023/09/10 11:55:05;;;;;;;18.02;8.05;;;;;;;;;;4990458;28;20041;-65
2023/09/10 11:57:31;;;;;;;16.25;7.97;;;;;;;;;;4990842;28;20072;-65
2023/09/10 11:59:58;;;;;;;15.38;7.78;;;;;;;;;;4990420;28;20046;-65
2023/09/10 12:02:25;;;;;;;14.18;7.63;;;;;;;;;;5013798;28;20037;-65
2023/09/10 12:04:51;;;;;;;15.70;7.40;;;;;;;;;;5013876;28;20553;-65
2023/09/10 12:07:18;;;;;;;13.23;7.47;;;;;;;;;;5015406;28;20126;-65
2023/09/10 12:09:44;;;;;;;12.70;7.32;;;;;;;;;;5013939;28;20125;-64
2023/09/10 12:12:22;;;;;;;16.10;7.45;;;;;;;;;;5014180;28;20038;-65
2023/09/10 12:14:49;;;;;;;13.02;7.53;;;;;;;;;;5013216;28;20525;-65
2023/09/10 12:17:17;;;;;;;13.32;7.40;;;;;;;;;;5015386;28;20267;-64
2023/09/10 12:19:44;;;;;;;19.00;7.60;;;;;;;;;;5013480;28;20037;-64
2023/09/10 12:22:14;;;;;;;18.05;7.80;;;;;;;;;;5014169;28;20692;-63
2023/09/10 12:24:41;;;;;;;13.82;6.88;;;;;;;;;;5013786;28;20088;-64
2023/09/10 12:27:09;;;;;;;13.18;7.13;;;;;;;;;;5014965;28;20339;-63
2023/09/10 12:29:36;;;;;;;12.02;6.05;;;;;;;;;;5013750;28;20110;-65
2023/09/10 12:32:03;;;;;;;12.35;6.75;;;;;;;;;;5013414;28;20053;-66
2023/09/10 12:34:29;;;;;;;14.23;7.10;;;;;;;;;;5011794;28;20045;-64
2023/09/10 12:36:57;;;;;;;13.52;7.55;;;;;;;;;;5013554;28;20037;-64
2023/09/10 12:39:24;;;;;;;12.68;7.13;;;;;;;;;;5012695;28;20054;-64
2023/09/10 12:41:56;;;;;;;14.40;6.90;;;;;;;;;;5012473;28;20542;-64
2023/09/10 12:44:23;;;;;;;11.07;6.68;;;;;;;;;;5010488;28;20052;-64
2023/09/10 12:46:50;;;;;;;13.13;7.28;;;;;;;;;;5013806;28;20482;-63
2023/09/10 12:49:17;;;;;;;15.88;7.30;;;;;;;;;;5011604;28;20037;-64
2023/09/10 12:51:43;;;;;;;12.52;6.65;;;;;;;;;;5012752;28;20064;-63
2023/09/10 12:54:10;;;;;;;15.25;7.15;;;;;;;;;;5012555;28;20048;-64
2023/09/10 12:56:41;;;;;;;10.90;6.40;;;;;;;;;;5011710;28;20118;-64
2023/09/10 12:59:08;;;;;;;14.05;7.07;;;;;;;;;;5011974;28;20041;-63
2023/09/10 13:01:38;;;;;;;12.57;7.13;;;;;;;;;;5012226;28;20678;-64
2023/09/10 13:04:04;;;;;;;12.55;7.32;;;;;;;;;;5012827;28;20041;-64
2023/09/10 13:06:31;;;;;;;15.85;7.82;;;;;;;;;;5011852;28;20044;-64
2023/09/10 13:09:04;;;;;;;14.60;7.90;;;;;;;;;;5011219;28;20121;-65
2023/09/10 13:11:31;;;;;;;15.37;7.90;;;;;;;;;;5010963;28;20049;-65
2023/09/10 13:13:57;;;;;;;15.20;8.30;;;;;;;;;;5011195;28;20052;-65
2023/09/10 13:16:24;;;;;;;16.08;9.27;;;;;;;;;;5018978;28;20044;-64
2023/09/10 13:18:51;;;;;;;17.45;9.45;;;;;;;;;;5031582;28;20056;-65
2023/09/10 13:21:20;;;;;;;16.75;9.13;;;;;;;;;;5031048;28;20028;-64
2023/09/10 13:23:47;;;;;;;16.95;8.27;;;;;;;;;;5028924;28;20071;-65
2023/09/10 13:26:14;;;;;;;17.65;8.75;;;;;;;;;;5031048;28;20048;-65
2023/09/10 13:28:40;;;;;;;16.88;8.23;;;;;;;;;;5030102;28;20047;-64
2023/09/10 13:31:07;;;;;;;16.65;8.48;;;;;;;;;;5030339;28;20049;-64
2023/09/10 13:33:33;;;;;;;14.43;8.13;;;;;;;;;;5031601;28;20041;-65
2023/09/10 13:36:00;;;;;;;17.20;8.63;;;;;;;;;;5032152;28;20128;-65
2023/09/10 13:38:27;;;;;;;16.80;9.13;;;;;;;;;;5030467;28;20049;-64
2023/09/10 13:40:56;;;;;;;17.25;9.43;;;;;;;;;;5031947;28;20320;-65
2023/09/10 13:43:23;;;;;;;18.17;9.07;;;;;;;;;;5029652;28;20049;-65
2023/09/10 13:45:50;;;;;;;16.45;9.07;;;;;;;;;;5031334;28;20049;-65
2023/09/10 13:48:17;;;;;;;18.27;8.93;;;;;;;;;;5032158;28;20084;-65
2023/09/10 13:50:43;;;;;;;13.90;8.55;;;;;;;;;;5030971;28;20057;-64
2023/09/10 13:53:10;;;;;;;15.77;8.82;;;;;;;;;;5031771;28;20382;-64
2023/09/10 13:55:36;;;;;;;18.55;9.00;;;;;;;;;;5029314;28;20083;-63
2023/09/10 13:58:03;;;;;;;20.30;9.00;;;;;;;;;;5030270;28;20120;-64
2023/09/10 14:00:29;;;;;;;16.20;8.75;;;;;;;;;;5029627;28;20045;-65
2023/09/10 14:02:56;;;;;;;17.35;8.50;;;;;;;;;;5031031;28;20049;-64
2023/09/10 14:05:23;;;;;;;17.52;8.38;;;;;;;;;;5029464;28;20138;-63
2023/09/10 14:07:50;;;;;;;17.17;9.32;;;;;;;;;;5030021;28;20382;-62
2023/09/10 14:10:16;;;;;;;18.75;9.40;;;;;;;;;;5030356;28;20065;-64
2023/09/10 14:12:43;;;;;;;16.17;9.05;;;;;;;;;;5030332;28;20036;-66
2023/09/10 14:15:10;;;;;;;18.77;8.35;;;;;;;;;;5030470;28;20040;-65
2023/09/10 14:17:36;;;;;;;19.35;8.52;;;;;;;;;;5030083;28;20048;-65
2023/09/10 14:20:03;;;;;;;16.83;7.72;;;;;;;;;;5028281;28;20417;-64
2023/09/10 14:22:30;;;;;;;16.55;8.00;;;;;;;;;;5031461;28;20056;-63
2023/09/10 14:24:57;;;;;;;13.52;7.53;;;;;;;;;;5030941;28;20059;-63
2023/09/10 14:27:24;;;;;;;18.33;7.43;;;;;;;;;;5030275;28;20047;-65
2023/09/10 14:29:50;;;;;;;13.35;7.22;;;;;;;;;;5030113;28;20043;-65
2023/09/10 14:32:20;;;;;;;12.07;6.78;;;;;;;;;;5029030;28;20036;-63
2023/09/10 14:34:46;;;;;;;14.52;7.00;;;;;;;;;;5029944;28;20051;-60
2023/09/10 14:37:13;;;;;;;11.00;5.82;;;;;;;;;;5029936;28;22328;-64
2023/09/10 14:39:39;;;;;;;13.55;6.28;;;;;;;;;;5029813;28;20029;-65
2023/09/10 14:42:06;;;;;;;10.30;5.60;;;;;;;;;;5030467;28;20052;-64
2023/09/10 14:44:32;;;;;;;9.50;5.80;;;;;;;;;;5031644;28;20159;-64
2023/09/10 14:46:59;;;;;;;11.07;5.50;;;;;;;;;;5028363;28;20049;-64
2023/09/10 14:49:26;;;;;;;10.00;5.25;;;;;;;;;;5028052;28;20072;-63
2023/09/10 14:51:52;;;;;;;10.23;5.70;;;;;;;;;;5027466;28;20055;-64
2023/09/10 14:54:19;;;;;;;8.75;5.05;;;;;;;;;;5027193;28;20118;-64
2023/09/10 14:56:46;;;;;;;12.25;5.50;;;;;;;;;;5029952;28;20041;-64
2023/09/10 14:59:12;;;;;;;9.80;5.05;;;;;;;;;;5031201;28;20032;-66
2023/09/10 15:01:39;;;;;;;9.13;5.05;;;;;;;;;;5026875;28;20037;-64
2023/09/10 15:04:06;;;;;;;11.23;5.18;;;;;;;;;;5031318;28;20041;-64
2023/09/10 15:06:32;;;;;;;13.70;5.20;;;;;;;;;;5030405;28;21244;-64
2023/09/10 15:08:59;;;;;;;8.93;5.07;;;;;;;;;;5031465;28;20056;-65
2023/09/10 15:11:25;;;;;;;11.57;5.18;;;;;;;;;;5029970;28;20408;-65
2023/09/10 15:13:52;;;;;;;12.70;5.50;;;;;;;;;;5031443;28;20525;-64
2023/09/10 15:16:19;;;;;;;9.38;4.78;;;;;;;;;;5029092;28;20452;-65
2023/09/10 15:18:45;;;;;;;11.23;5.35;;;;;;;;;;5027326;28;20132;-64
2023/09/10 15:21:12;;;;;;;8.65;4.95;;;;;;;;;;5029987;28;20112;-64
2023/09/10 15:23:39;;;;;;;10.93;5.72;;;;;;;;;;5028315;28;20041;-64
2023/09/10 15:26:05;;;;;;;9.38;5.05;;;;;;;;;;5029290;28;20033;-67
2023/09/10 15:28:32;;;;;;;11.98;5.50;;;;;;;;;;5027970;28;20087;-65
2023/09/10 15:30:59;;;;;;;10.13;5.32;;;;;;;;;;5030081;28;20457;-63
2023/09/10 15:33:25;;;;;;;11.18;5.43;;;;;;;;;;5030000;28;20584;-63
2023/09/10 15:35:52;;;;;;;10.68;5.38;;;;;;;;;;5029103;28;20614;-66
2023/09/10 15:38:20;;;;;;;14.75;5.05;;;;;;;;;;5032116;28;20245;-63
2023/09/10 15:40:46;;;;;;;10.40;5.57;;;;;;;;;;5032410;28;20746;-62
2023/09/10 15:43:13;;;;;;;11.95;4.90;;;;;;;;;;5031380;28;20045;-64
2023/09/10 15:45:40;;;;;;;8.77;4.75;;;;;;;;;;5028760;28;20102;-65
2023/09/10 15:48:06;;;;;;;11.48;5.20;;;;;;;;;;5028638;28;20396;-64
2023/09/10 15:50:37;;;;;;;8.45;4.68;;;;;;;;;;5027603;28;20088;-64
2023/09/10 15:53:04;;;;;;;10.60;4.85;;;;;;;;;;5020961;28;20469;-64
2023/09/10 15:55:30;;;;;;;12.98;4.68;;;;;;;;;;5027289;28;20045;-65
2023/09/10 15:57:57;;;;;;;15.35;5.20;;;;;;;;;;5028943;28;20587;-65
2023/09/10 16:00:24;;;;;;;10.70;5.35;;;;;;;;;;5029030;28;20122;-65
2023/09/10 16:02:51;;;;;;;11.23;5.57;;;;;;;;;;5029084;28;20887;-65
2023/09/10 16:05:17;;;;;;;9.38;4.53;;;;;;;;;;5029499;28;20445;-66
2023/09/10 16:07:44;;;;;;;8.70;3.92;;;;;;;;;;5028597;28;20033;-66
2023/09/10 16:10:11;;;;;;;11.70;4.20;;;;;;;;;;5029180;28;20103;-66
2023/09/10 16:12:37;;;;;;;9.93;4.35;;;;;;;;;;5027635;28;20573;-66
2023/09/10 16:15:05;;;;;;;7.72;4.18;;;;;;;;;;5029236;28;20037;-66
2023/09/10 16:17:31;;;;;;;9.80;4.03;;;;;;;;;;5028875;28;20098;-66
2023/09/10 16:19:58;;;;;;;9.25;3.53;;;;;;;;;;5033690;28;20048;-66
2023/09/10 16:22:29;;;;;;;7.70;4.30;;;;;;;;;;5031404;28;20071;-66
2023/09/10 16:24:55;;;;;;;9.05;3.38;;;;;;;;;;5032365;28;20041;-64
2023/09/10 16:27:22;;;;;;;7.63;3.53;;;;;;;;;;5032704;28;20095;-64
2023/09/10 16:29:49;;;;;;;9.88;3.28;;;;;;;;;;5029660;28;20041;-66
2023/09/10 16:32:15;;;;;;;8.90;3.35;;;;;;;;;;5032464;28;20424;-65
2023/09/10 16:34:42;;;;;;;7.80;3.55;;;;;;;;;;5031709;28;20104;-66
2023/09/10 16:37:09;;;;;;;7.80;3.95;;;;;;;;;;5032641;28;20181;-65
2023/09/10 16:39:36;;;;;;;7.50;3.20;;;;;;;;;;5031574;28;20497;-66
2023/09/10 16:42:05;;;;;;;10.52;3.42;;;;;;;;;;5033617;28;20773;-65
2023/09/10 16:44:31;;;;;;;8.98;3.50;;;;;;;;;;5030555;28;20048;-67
2023/09/10 16:46:58;;;;;;;7.68;4.07;;;;;;;;;;5033141;28;20033;-65
2023/09/10 16:49:25;;;;;;;7.32;3.72;;;;;;;;;;5031704;28;20064;-65
2023/09/10 16:51:52;;;;;;;8.18;3.50;;;;;;;;;;5033456;28;20049;-66
2023/09/10 16:54:19;;;;;;;6.82;3.40;;;;;;;;;;5031927;28;20029;-65